Time;durP1;ratioP1;P1;durP2;ratioP2;P2;SDS_P1;SDS_P2;PMS_P1;PMS_P2;Temp;Humidity;BMP_temperature;BMP_pressure;BME280_temperature;BME280_humidity;BME280_pressure;Samples;Min_cycle;Max_cycle;Signal;HPM_P1;HPM_P2
2022/08/29 00:00:06;;;;;;;10.95;2.70;;;;;;;16.97;55.31;101675.94;5093019;28;20040;-54
2022/08/29 00:02:33;;;;;;;11.30;2.80;;;;;;;17.11;55.43;101677.06;5094723;28;20409;-54
2022/08/29 00:04:59;;;;;;;13.35;2.78;;;;;;;17.21;55.05;101677.72;5094308;28;20044;-54
2022/08/29 00:07:27;;;;;;;12.32;2.55;;;;;;;17.19;55.01;101677.88;5095044;28;20063;-53
2022/08/29 00:09:53;;;;;;;11.90;2.65;;;;;;;16.99;55.32;101677.47;5084928;28;20053;-55
2022/08/29 00:12:20;;;;;;;10.77;2.85;;;;;;;17.03;54.98;101678.78;5074639;28;20097;-54
2022/08/29 00:14:46;;;;;;;15.00;2.85;;;;;;;16.94;55.23;101666.41;5074153;28;20048;-55
2022/08/29 00:17:13;;;;;;;11.82;2.88;;;;;;;16.94;55.33;101679.81;5074399;28;20048;-54
2022/08/29 00:19:41;;;;;;;11.82;2.97;;;;;;;16.94;55.52;101674.47;5081509;28;20048;-54
2022/08/29 00:22:07;;;;;;;14.77;2.70;;;;;;;16.93;56.05;101667.41;5094830;28;20047;-54
2022/08/29 00:24:34;;;;;;;13.73;2.90;;;;;;;16.96;55.51;101664.41;5034947;28;20142;-54
2022/08/29 00:27:00;;;;;;;8.77;2.65;;;;;;;16.94;55.50;101670.97;5074270;28;20131;-54
2022/08/29 00:29:27;;;;;;;10.57;2.75;;;;;;;16.84;55.91;101668.47;5086241;28;20078;-54
2022/08/29 00:31:54;;;;;;;11.38;2.90;;;;;;;16.80;55.96;101665.25;5094226;28;20052;-55
2022/08/29 00:34:21;;;;;;;11.27;2.75;;;;;;;16.84;55.72;101665.78;5093525;28;20191;-55
2022/08/29 00:36:48;;;;;;;9.15;2.80;;;;;;;16.85;56.45;101660.25;5094280;28;20048;-54
2022/08/29 00:39:14;;;;;;;11.63;3.05;;;;;;;16.80;56.04;101659.91;5092458;28;20068;-54
2022/08/29 00:41:41;;;;;;;10.50;2.97;;;;;;;16.75;56.21;101670.28;5093118;28;20052;-55
2022/08/29 00:44:08;;;;;;;11.65;3.00;;;;;;;16.75;56.30;101666.78;5093021;28;20040;-54
2022/08/29 00:46:45;;;;;;;11.95;2.60;;;;;;;16.77;56.10;101670.13;5092125;28;20046;-54
2022/08/29 00:49:40;;;;;;;11.45;2.80;;;;;;;16.90;56.08;101673.16;5073753;28;20041;-54
2022/08/29 00:52:17;;;;;;;11.50;3.30;;;;;;;16.80;56.47;101667.94;5070078;28;20041;-55
2022/08/29 00:54:48;;;;;;;8.52;2.47;;;;;;;16.71;56.28;101679.69;5073532;28;20041;-54
2022/08/29 00:57:18;;;;;;;11.15;3.00;;;;;;;16.70;56.57;101667.31;5078500;28;20059;-55
2022/08/29 00:59:47;;;;;;;10.30;2.83;;;;;;;16.65;56.43;101670.50;5093871;28;20071;-55
2022/08/29 01:02:14;;;;;;;9.65;2.63;;;;;;;16.62;56.79;101676.19;5078330;28;20044;-55
2022/08/29 01:04:41;;;;;;;16.10;3.00;;;;;;;16.65;56.72;101669.66;5093699;28;20043;-54
2022/08/29 01:07:08;;;;;;;20.67;3.00;;;;;;;16.71;56.88;101666.28;5092211;28;20561;-55
2022/08/29 01:09:38;;;;;;;9.85;2.65;;;;;;;16.60;56.99;101664.00;5093884;28;20543;-54
2022/08/29 01:12:22;;;;;;;11.15;2.67;;;;;;;16.54;57.17;101667.38;5091824;28;20044;-54
2022/08/29 01:14:54;;;;;;;10.70;3.05;;;;;;;16.50;57.14;101673.06;5093208;28;20054;-55
2022/08/29 01:17:26;;;;;;;13.82;3.08;;;;;;;16.53;57.29;101681.75;5091761;28;20052;-55
2022/08/29 01:19:59;;;;;;;13.25;2.95;;;;;;;16.54;57.61;101680.75;5093382;28;20854;-55
2022/08/29 01:25:08;;;;;;;9.93;2.65;;;;;;;16.56;58.03;101679.56;5065982;28;20403;-55
2022/08/29 01:27:39;;;;;;;13.90;2.75;;;;;;;16.39;57.84;101683.25;5082069;28;20041;-54
2022/08/29 01:30:06;;;;;;;13.25;2.90;;;;;;;16.46;57.64;101679.75;5069111;28;20098;-54
2022/08/29 01:32:32;;;;;;;11.15;2.80;;;;;;;16.45;57.88;101683.44;5067242;28;20402;-55
2022/08/29 01:34:59;;;;;;;12.20;3.00;;;;;;;16.46;57.99;101686.94;5052247;28;20068;-56
2022/08/29 01:37:30;;;;;;;8.82;2.80;;;;;;;16.38;58.10;101687.78;5063567;28;20045;-53
2022/08/29 01:39:56;;;;;;;12.15;2.95;;;;;;;16.36;58.61;101694.34;5050214;28;20410;-54
2022/08/29 01:42:23;;;;;;;12.68;2.55;;;;;;;16.25;58.99;101692.84;5049140;28;20038;-54
2022/08/29 01:44:55;;;;;;;9.05;2.90;;;;;;;16.26;58.79;101694.47;5050113;28;20491;-56
2022/08/29 01:47:25;;;;;;;10.35;2.80;;;;;;;16.15;58.89;101690.31;5061735;28;20491;-56
2022/08/29 01:49:52;;;;;;;12.15;2.65;;;;;;;16.15;59.25;101697.50;5050182;28;20502;-56
2022/08/29 01:52:20;;;;;;;11.40;3.28;;;;;;;16.21;58.85;101703.03;5060641;28;20049;-54
2022/08/29 01:54:47;;;;;;;11.10;2.85;;;;;;;16.22;59.00;101698.50;5069802;28;20049;-56
2022/08/29 01:57:15;;;;;;;14.05;2.63;;;;;;;16.26;59.81;101698.03;5066690;28;20052;-56
2022/08/29 01:59:43;;;;;;;9.80;2.78;;;;;;;16.25;59.43;101692.84;5069869;28;20056;-56
2022/08/29 02:02:27;;;;;;;10.95;2.88;;;;;;;16.28;59.43;101696.00;5067801;28;20135;-56
2022/08/29 02:04:57;;;;;;;9.98;2.60;;;;;;;16.31;59.38;101695.66;5067254;28;20379;-56
2022/08/29 02:07:24;;;;;;;11.77;3.15;;;;;;;16.24;59.71;101700.00;5069028;28;20053;-56
2022/08/29 02:09:51;;;;;;;10.52;2.90;;;;;;;16.14;59.67;101706.56;5069759;28;20055;-56
2022/08/29 02:12:19;;;;;;;9.93;2.70;;;;;;;16.09;59.86;101696.34;5067335;28;20490;-56
2022/08/29 02:14:46;;;;;;;13.52;2.80;;;;;;;16.04;59.95;101701.34;5069792;28;20040;-56
2022/08/29 02:17:13;;;;;;;13.35;2.97;;;;;;;16.02;59.98;101701.50;5069289;28;20406;-56
2022/08/29 02:19:40;;;;;;;9.85;2.58;;;;;;;16.00;60.04;101702.69;5068045;28;20071;-55
2022/08/29 02:22:08;;;;;;;14.27;2.88;;;;;;;16.00;60.30;101706.19;5061202;28;20098;-56
2022/08/29 02:24:35;;;;;;;9.10;2.78;;;;;;;16.02;60.64;101709.53;5031845;28;20045;-54
2022/08/29 02:27:03;;;;;;;9.88;3.03;;;;;;;15.92;60.89;101703.53;5051837;28;20164;-53
2022/08/29 02:29:29;;;;;;;9.38;2.88;;;;;;;16.00;60.89;101708.88;5051595;28;20421;-56
2022/08/29 02:31:56;;;;;;;11.88;2.40;;;;;;;16.03;60.73;101705.88;5047519;28;20051;-56
2022/08/29 02:34:23;;;;;;;11.55;2.70;;;;;;;15.97;60.94;101708.38;5064757;28;20090;-56
2022/08/29 02:36:50;;;;;;;10.73;2.95;;;;;;;15.99;60.77;101715.25;5055772;28;20114;-56
2022/08/29 02:39:18;;;;;;;11.30;2.78;;;;;;;16.04;60.99;101718.25;5055706;28;20049;-56
2022/08/29 02:41:44;;;;;;;14.75;2.80;;;;;;;16.02;60.77;101714.06;5055746;28;20094;-56
2022/08/29 02:44:11;;;;;;;18.52;3.03;;;;;;;16.02;61.36;101709.53;5053793;28;20049;-56
2022/08/29 02:46:38;;;;;;;14.85;2.90;;;;;;;16.05;61.05;101711.06;5055906;28;20045;-56
2022/08/29 02:49:05;;;;;;;13.23;3.08;;;;;;;15.95;61.89;101713.06;5054298;28;20143;-55
2022/08/29 02:51:33;;;;;;;10.57;2.67;;;;;;;15.88;62.22;101715.53;5053987;28;20069;-56
2022/08/29 02:54:01;;;;;;;16.65;3.35;;;;;;;15.91;62.07;101707.19;5055893;28;20048;-56
2022/08/29 02:56:28;;;;;;;12.57;3.05;;;;;;;15.89;62.47;101706.53;5055545;28;20045;-55
2022/08/29 02:58:56;;;;;;;15.35;3.10;;;;;;;15.88;62.63;101704.84;5047785;28;20038;-56
2022/08/29 03:01:24;;;;;;;17.42;3.03;;;;;;;15.85;62.73;101706.03;5032072;28;20495;-56
2022/08/29 03:03:52;;;;;;;14.07;3.03;;;;;;;15.85;63.08;101703.34;5031213;28;20088;-56
2022/08/29 03:06:20;;;;;;;11.20;3.03;;;;;;;15.82;63.14;101701.00;5035712;28;20518;-55
2022/08/29 03:08:46;;;;;;;15.10;3.35;;;;;;;15.82;62.85;101702.84;5049007;28;20052;-56
2022/08/29 03:11:14;;;;;;;15.07;3.53;;;;;;;15.84;63.26;101709.69;5053493;28;20041;-56
2022/08/29 03:13:42;;;;;;;12.35;3.15;;;;;;;15.83;63.30;101697.34;5055514;28;20056;-55
2022/08/29 03:16:09;;;;;;;12.10;2.80;;;;;;;15.76;63.32;101693.63;5054961;28;20053;-54
2022/08/29 03:18:36;;;;;;;9.60;2.83;;;;;;;15.77;63.59;101689.13;5054521;28;20052;-56
2022/08/29 03:21:03;;;;;;;10.43;2.97;;;;;;;15.64;63.41;101692.25;5054830;28;20437;-56
2022/08/29 03:23:31;;;;;;;15.02;3.35;;;;;;;15.57;63.38;101693.91;5016060;28;20443;-55
2022/08/29 03:25:58;;;;;;;10.02;2.80;;;;;;;15.61;63.57;101695.22;5050818;28;20402;-56
2022/08/29 03:28:26;;;;;;;11.05;3.35;;;;;;;15.54;63.36;101690.56;5052945;28;20048;-55
2022/08/29 03:30:52;;;;;;;12.38;2.90;;;;;;;15.68;63.67;101690.91;5052328;28;20483;-55
2022/08/29 03:33:19;;;;;;;10.57;3.20;;;;;;;15.70;63.62;101683.59;5033158;28;20407;-54
2022/08/29 03:35:46;;;;;;;12.82;3.20;;;;;;;15.73;63.38;101685.91;5038138;28;20049;-56
2022/08/29 03:38:12;;;;;;;12.60;2.55;;;;;;;15.65;63.68;101673.38;5054615;28;20048;-56
2022/08/29 03:40:41;;;;;;;14.13;3.35;;;;;;;15.58;63.65;101683.03;5055296;28;20045;-54
2022/08/29 03:43:08;;;;;;;8.05;2.92;;;;;;;15.69;63.58;101677.38;5054794;28;20072;-53
2022/08/29 03:45:35;;;;;;;10.85;3.15;;;;;;;15.69;63.31;101672.03;5053514;28;20040;-54
2022/08/29 03:48:02;;;;;;;14.48;3.25;;;;;;;15.63;63.32;101678.03;5041250;28;20124;-54
2022/08/29 03:50:29;;;;;;;10.02;3.13;;;;;;;15.71;63.32;101666.50;5035671;28;20048;-54
2022/08/29 03:52:56;;;;;;;12.20;2.95;;;;;;;15.66;63.56;101671.50;5053205;28;20041;-54
2022/08/29 03:55:22;;;;;;;11.40;3.05;;;;;;;15.67;63.84;101671.34;5054630;28;20077;-54
2022/08/29 03:57:49;;;;;;;13.65;2.95;;;;;;;15.69;63.74;101663.16;5036624;28;20399;-54
2022/08/29 04:00:18;;;;;;;17.35;3.05;;;;;;;15.63;63.80;101656.66;5034217;28;20447;-55
2022/08/29 04:02:46;;;;;;;9.25;2.90;;;;;;;15.60;64.02;101658.81;5035005;28;20104;-55
2022/08/29 04:05:15;;;;;;;11.82;2.97;;;;;;;15.65;63.37;101661.84;5038740;28;20521;-55
2022/08/29 04:07:48;;;;;;;12.27;3.00;;;;;;;15.50;63.95;101659.81;5054272;28;20486;-59
2022/08/29 04:10:21;;;;;;;9.85;2.90;;;;;;;15.52;63.99;101657.81;5051257;28;20127;-55
2022/08/29 04:12:48;;;;;;;10.98;3.10;;;;;;;15.58;64.38;101658.16;5054245;28;20081;-57
2022/08/29 04:15:18;;;;;;;9.93;2.90;;;;;;;15.46;64.17;101660.28;5046601;28;20428;-54
2022/08/29 04:17:45;;;;;;;12.38;3.10;;;;;;;15.57;64.46;101665.31;5034763;28;20088;-53
2022/08/29 04:20:13;;;;;;;10.05;2.80;;;;;;;15.52;64.47;101659.66;5034093;28;20037;-56
2022/08/29 04:22:41;;;;;;;13.68;3.13;;;;;;;15.50;64.76;101664.31;5000648;28;20143;-56
2022/08/29 04:25:13;;;;;;;12.77;3.22;;;;;;;15.48;64.54;101661.81;5034368;28;20046;-56
2022/08/29 04:27:40;;;;;;;15.70;3.35;;;;;;;15.32;65.05;101670.63;5034088;28;20052;-55
2022/08/29 04:30:11;;;;;;;11.18;2.80;;;;;;;15.36;64.69;101666.63;5034221;28;20050;-55
2022/08/29 04:32:38;;;;;;;12.57;2.93;;;;;;;15.33;64.79;101669.63;5053802;28;20080;-55
2022/08/29 04:35:05;;;;;;;10.07;2.85;;;;;;;15.35;65.00;101678.31;5053560;28;20068;-56
2022/08/29 04:37:33;;;;;;;12.20;3.20;;;;;;;15.38;65.21;101677.16;5034567;28;20045;-55
2022/08/29 04:40:00;;;;;;;13.60;3.28;;;;;;;15.50;64.87;101680.38;5033735;28;20057;-55
2022/08/29 04:42:27;;;;;;;10.93;3.00;;;;;;;15.51;64.67;101682.03;5033959;28;20099;-55
2022/08/29 04:44:54;;;;;;;15.65;3.20;;;;;;;15.47;65.03;101686.03;5033738;28;20099;-55
2022/08/29 04:47:21;;;;;;;13.13;3.03;;;;;;;15.54;65.14;101682.53;5033337;28;20051;-54
2022/08/29 04:49:53;;;;;;;13.32;3.63;;;;;;;15.56;64.80;101679.69;5033691;28;20099;-55
2022/08/29 04:52:20;;;;;;;13.95;3.53;;;;;;;15.52;65.53;101683.72;5052146;28;20052;-55
2022/08/29 04:54:48;;;;;;;16.13;3.78;;;;;;;15.46;65.63;101682.53;5053187;28;20328;-54
2022/08/29 04:57:15;;;;;;;13.65;3.17;;;;;;;15.43;66.00;101682.03;5053112;28;20041;-55
2022/08/29 04:59:42;;;;;;;12.95;3.15;;;;;;;15.44;65.87;101689.84;5042615;28;20549;-55
2022/08/29 05:02:10;;;;;;;13.15;3.00;;;;;;;15.33;65.95;101693.69;5033275;28;20053;-55
2022/08/29 05:04:36;;;;;;;15.15;3.60;;;;;;;15.26;66.04;101684.66;5033480;28;20041;-55
2022/08/29 05:07:03;;;;;;;12.88;3.20;;;;;;;15.33;65.89;101688.34;5033455;28;20060;-55
2022/08/29 05:09:30;;;;;;;12.35;2.95;;;;;;;15.36;66.27;101693.34;5043222;28;20065;-54
2022/08/29 05:11:57;;;;;;;14.98;3.60;;;;;;;15.39;65.70;101691.34;5052935;28;20049;-56
2022/08/29 05:14:23;;;;;;;12.18;3.30;;;;;;;15.41;65.86;101702.72;5044146;28;20439;-56
2022/08/29 05:16:50;;;;;;;15.02;3.50;;;;;;;15.28;66.53;101692.47;5050664;28;20047;-55
2022/08/29 05:19:18;;;;;;;18.23;3.92;;;;;;;15.26;66.91;101703.34;5052516;28;20052;-55
2022/08/29 05:21:45;;;;;;;22.80;3.92;;;;;;;15.28;67.08;101705.84;5036861;28;20049;-56
2022/08/29 05:24:13;;;;;;;16.00;3.60;;;;;;;15.33;66.81;101699.03;5007263;28;20049;-55
2022/08/29 05:26:44;;;;;;;12.13;3.50;;;;;;;15.29;66.72;101704.84;5035446;28;20044;-56
2022/08/29 05:29:12;;;;;;;13.15;4.10;;;;;;;15.28;66.49;101692.47;5071335;28;20147;-56
2022/08/29 05:31:41;;;;;;;16.27;3.50;;;;;;;15.39;66.50;101702.03;5070989;28;20759;-56
2022/08/29 05:34:10;;;;;;;13.00;3.50;;;;;;;15.34;66.35;101700.69;5049638;28;20437;-55
2022/08/29 05:36:37;;;;;;;11.45;3.78;;;;;;;15.44;66.04;101702.38;5051509;28;20052;-55
2022/08/29 05:39:04;;;;;;;13.80;3.70;;;;;;;15.58;66.01;101698.25;5052341;28;20055;-56
2022/08/29 05:41:31;;;;;;;13.30;3.13;;;;;;;15.45;65.97;101699.56;5052724;28;20044;-56
2022/08/29 05:43:57;;;;;;;13.38;3.30;;;;;;;15.48;66.03;101704.59;5052486;28;20053;-55
2022/08/29 05:46:25;;;;;;;15.60;3.95;;;;;;;15.51;66.07;101703.41;5052417;28;20127;-55
2022/08/29 05:48:51;;;;;;;16.40;3.47;;;;;;;15.56;65.57;101709.13;5052065;28;20366;-56
2022/08/29 05:51:20;;;;;;;14.25;3.55;;;;;;;15.60;65.88;101712.31;5052641;28;20045;-54
2022/08/29 05:53:47;;;;;;;15.38;3.63;;;;;;;15.60;65.70;101713.13;5052327;28;20049;-56
2022/08/29 05:56:23;;;;;;;18.10;4.03;;;;;;;15.62;65.45;101721.81;5052260;28;20049;-56
2022/08/29 05:58:51;;;;;;;10.90;3.53;;;;;;;15.64;65.35;101722.50;5052339;28;20103;-56
2022/08/29 06:01:25;;;;;;;17.80;3.88;;;;;;;15.77;64.90;101732.78;5052048;28;20045;-56
2022/08/29 06:03:52;;;;;;;16.40;3.60;;;;;;;15.69;64.82;101736.22;5051033;28;20585;-55
2022/08/29 06:06:21;;;;;;;15.30;3.88;;;;;;;15.69;65.06;101736.22;5052785;28;20076;-56
2022/08/29 06:08:48;;;;;;;19.52;3.72;;;;;;;15.62;65.76;101737.03;5035662;28;20068;-56
2022/08/29 06:11:18;;;;;;;19.40;3.67;;;;;;;15.73;65.01;101742.06;5043087;28;20041;-55
2022/08/29 06:13:45;;;;;;;19.45;3.90;;;;;;;15.70;64.99;101740.59;5056614;28;20091;-54
2022/08/29 06:16:21;;;;;;;14.80;3.85;;;;;;;15.89;64.81;101735.97;5056382;28;20045;-55
2022/08/29 06:18:48;;;;;;;36.38;5.72;;;;;;;15.89;64.60;101739.47;5055942;28;20446;-54
2022/08/29 06:21:15;;;;;;;25.92;4.60;;;;;;;15.97;64.70;101737.81;5056252;28;20045;-56
2022/08/29 06:23:43;;;;;;;18.23;3.97;;;;;;;15.81;65.39;101736.78;5005586;28;20060;-57
2022/08/29 06:26:11;;;;;;;23.85;4.20;;;;;;;15.90;64.61;101734.97;5057701;28;20068;-55
2022/08/29 06:28:44;;;;;;;19.25;4.57;;;;;;;16.01;64.25;101739.13;5052792;28;20044;-56
2022/08/29 06:31:19;;;;;;;18.73;4.03;;;;;;;16.12;64.17;101747.69;5048815;28;20041;-56
2022/08/29 06:33:49;;;;;;;18.73;4.40;;;;;;;16.27;64.30;101739.84;5051353;28;20410;-56
2022/08/29 06:36:16;;;;;;;15.55;4.00;;;;;;;16.28;63.95;101748.69;5051937;28;20110;-56
2022/08/29 06:38:43;;;;;;;22.63;4.68;;;;;;;16.31;63.54;101746.53;5061257;28;20071;-55
2022/08/29 06:41:13;;;;;;;12.77;3.83;;;;;;;16.32;63.64;101739.34;5042933;28;20041;-56
2022/08/29 06:43:40;;;;;;;19.60;4.35;;;;;;;16.31;63.91;101756.41;5049856;28;20036;-58
2022/08/29 06:46:07;;;;;;;19.35;4.22;;;;;;;16.41;63.75;101751.72;5057747;28;20051;-58
2022/08/29 06:48:34;;;;;;;19.17;3.90;;;;;;;16.30;63.27;101755.56;5048092;28;20053;-58
2022/08/29 06:51:02;;;;;;;19.13;4.07;;;;;;;16.33;63.48;101758.91;5071276;28;20052;-57
2022/08/29 06:53:29;;;;;;;19.42;4.03;;;;;;;16.34;63.33;101758.75;5067598;28;20058;-58
2022/08/29 06:55:55;;;;;;;17.40;4.03;;;;;;;16.41;63.44;101753.53;5072747;28;20486;-58
2022/08/29 06:58:22;;;;;;;17.50;3.70;;;;;;;16.44;63.38;101756.72;5052906;28;20047;-58
2022/08/29 07:00:49;;;;;;;18.95;3.85;;;;;;;16.56;63.85;101759.09;5049781;28;20061;-58
2022/08/29 07:03:15;;;;;;;16.70;3.47;;;;;;;16.45;63.42;101755.75;5059283;28;20110;-58
2022/08/29 07:05:42;;;;;;;15.73;3.83;;;;;;;16.60;63.27;101755.88;5071931;28;20066;-58
2022/08/29 07:08:09;;;;;;;15.27;3.92;;;;;;;16.65;62.91;101758.91;5051293;28;20075;-58
2022/08/29 07:10:35;;;;;;;22.02;4.00;;;;;;;16.77;63.04;101753.19;5050673;28;20060;-58
2022/08/29 07:13:02;;;;;;;19.88;4.15;;;;;;;16.75;61.96;101755.19;5064987;28;20049;-58
2022/08/29 07:15:29;;;;;;;16.67;3.88;;;;;;;16.92;62.35;101756.88;5054059;28;20041;-58
2022/08/29 07:17:55;;;;;;;19.95;3.72;;;;;;;16.93;61.31;101766.56;5054719;28;20053;-58
2022/08/29 07:20:25;;;;;;;17.65;3.42;;;;;;;16.84;61.39;101764.94;5069768;28;20048;-58
2022/08/29 07:22:52;;;;;;;14.80;3.53;;;;;;;16.68;61.63;101757.72;4998174;28;20075;-58
2022/08/29 07:25:19;;;;;;;23.10;3.85;;;;;;;16.82;61.87;101766.91;5000034;28;20172;-58
2022/08/29 07:27:47;;;;;;;16.75;3.95;;;;;;;16.88;61.46;101774.28;5057018;28;20037;-58
2022/08/29 07:30:15;;;;;;;19.20;3.95;;;;;;;16.99;61.15;101767.72;5058040;28;20107;-59
2022/08/29 07:32:44;;;;;;;14.95;4.07;;;;;;;16.79;61.56;101768.09;5048127;28;20061;-58
2022/08/29 07:35:12;;;;;;;14.90;3.63;;;;;;;16.92;60.92;101769.41;5065386;28;20375;-58
2022/08/29 07:37:40;;;;;;;17.40;4.00;;;;;;;17.04;60.76;101765.38;5061815;28;20041;-58
2022/08/29 07:40:10;;;;;;;16.15;3.67;;;;;;;17.27;60.79;101760.94;5043778;28;20051;-60
2022/08/29 07:42:37;;;;;;;20.90;3.97;;;;;;;17.30;59.93;101754.41;5051406;28;20052;-60
2022/08/29 07:45:06;;;;;;;19.67;3.80;;;;;;;17.36;59.38;101759.06;5052589;28;20045;-59
2022/08/29 07:47:33;;;;;;;16.70;3.78;;;;;;;17.37;59.28;101760.75;5045236;28;20041;-60
2022/08/29 07:50:03;;;;;;;18.92;4.30;;;;;;;17.45;59.18;101754.53;5063884;28;20094;-58
2022/08/29 07:52:29;;;;;;;24.48;5.10;;;;;;;17.55;58.58;101752.44;5053486;28;20057;-58
2022/08/29 07:54:56;;;;;;;16.70;4.45;;;;;;;17.68;58.54;101753.72;5062505;28;20048;-58
2022/08/29 07:57:23;;;;;;;22.25;4.00;;;;;;;17.72;58.21;101755.88;5051063;28;20041;-58
2022/08/29 07:59:50;;;;;;;20.77;4.07;;;;;;;17.72;58.02;101765.75;5042628;28;20056;-58
2022/08/29 08:02:17;;;;;;;15.57;3.63;;;;;;;17.79;58.22;101766.72;5051487;28;20049;-58
2022/08/29 08:04:44;;;;;;;16.08;3.70;;;;;;;18.05;56.93;101771.00;5069363;28;20040;-58
2022/08/29 08:07:12;;;;;;;19.00;3.67;;;;;;;18.20;56.94;101766.50;5057335;28;20371;-58
2022/08/29 08:09:39;;;;;;;19.42;4.28;;;;;;;18.26;56.98;101773.81;5065505;28;20041;-58
2022/08/29 08:12:06;;;;;;;19.50;4.13;;;;;;;18.03;57.36;101765.78;5045517;28;20053;-58
2022/08/29 08:14:34;;;;;;;17.30;3.60;;;;;;;18.15;56.44;101767.03;5052870;28;20376;-58
2022/08/29 08:17:02;;;;;;;16.17;3.58;;;;;;;18.23;56.25;101764.28;5056156;28;20551;-58
2022/08/29 08:19:29;;;;;;;15.55;3.42;;;;;;;18.44;55.32;101770.00;5043003;28;20132;-58
2022/08/29 08:21:58;;;;;;;16.48;3.53;;;;;;;18.48;55.13;101765.94;5045617;28;20121;-58
2022/08/29 08:24:24;;;;;;;15.10;3.47;;;;;;;18.68;54.46;101771.63;5011345;28;20514;-58
2022/08/29 08:26:51;;;;;;;12.77;3.53;;;;;;;18.75;54.10;101772.56;5056614;28;20066;-58
2022/08/29 08:29:18;;;;;;;14.30;3.28;;;;;;;18.93;53.35;101766.88;5051789;28;20056;-58
2022/08/29 08:31:48;;;;;;;12.48;3.17;;;;;;;19.03;53.95;101769.28;5059916;28;20379;-58
2022/08/29 08:34:17;;;;;;;22.42;3.40;;;;;;;19.09;53.26;101774.75;5047494;28;20051;-58
2022/08/29 08:36:44;;;;;;;15.85;2.85;;;;;;;19.07;51.69;101773.28;5059679;28;20103;-58
2022/08/29 08:39:12;;;;;;;13.85;3.20;;;;;;;19.03;51.72;101767.44;5056154;28;20041;-58
2022/08/29 08:41:51;;;;;;;18.58;3.60;;;;;;;18.94;52.11;101769.38;5038338;28;20049;-58
2022/08/29 08:44:43;;;;;;;15.63;3.28;;;;;;;18.92;52.22;101773.28;5045933;28;20041;-58
2022/08/29 08:47:14;;;;;;;16.67;3.30;;;;;;;18.98;51.87;101775.22;5041083;28;20375;-58
2022/08/29 08:49:49;;;;;;;15.73;3.53;;;;;;;19.11;52.12;101778.09;5040757;28;20132;-58
2022/08/29 08:52:21;;;;;;;16.90;3.70;;;;;;;19.30;51.47;101773.16;5037015;28;20128;-58
2022/08/29 08:54:54;;;;;;;14.32;3.47;;;;;;;19.53;50.96;101762.28;5057120;28;20052;-58
2022/08/29 08:57:21;;;;;;;12.48;3.47;;;;;;;19.85;50.33;101762.91;5060007;28;20045;-58
2022/08/29 08:59:55;;;;;;;15.55;3.30;;;;;;;20.00;50.17;101749.38;5054418;28;20090;-58
2022/08/29 09:03:02;;;;;;;15.10;3.80;;;;;;;20.09;49.84;101751.75;5056243;28;20402;-58
2022/08/29 09:05:39;;;;;;;21.23;3.90;;;;;;;20.07;50.07;101761.06;5048483;28;20053;-58
2022/08/29 09:08:30;;;;;;;18.50;3.20;;;;;;;20.36;49.17;101765.47;5058233;28;20047;-58
2022/08/29 09:11:16;;;;;;;19.00;3.67;;;;;;;20.34;48.82;101759.44;5054013;28;20053;-58
2022/08/29 09:14:07;;;;;;;17.13;3.60;;;;;;;20.21;49.26;101762.84;5040016;28;20095;-58
2022/08/29 09:16:41;;;;;;;16.00;3.70;;;;;;;19.97;49.19;101763.22;5045496;28;20037;-58
2022/08/29 09:19:11;;;;;;;18.15;3.70;;;;;;;19.84;49.61;101763.91;5055044;28;20103;-58
2022/08/29 09:21:47;;;;;;;13.38;3.65;;;;;;;20.12;49.39;101762.16;5054035;28;20071;-58
2022/08/29 09:24:27;;;;;;;15.57;3.95;;;;;;;20.17;49.15;101760.72;5034320;28;20086;-61
2022/08/29 09:26:55;;;;;;;17.38;3.60;;;;;;;20.66;48.59;101768.81;5053754;28;20048;-58
2022/08/29 09:29:27;;;;;;;10.68;3.60;;;;;;;20.81;47.12;101771.44;5057885;28;20189;-58
2022/08/29 09:32:06;;;;;;;21.02;3.92;;;;;;;20.96;46.31;101771.34;5045160;28;20049;-58
2022/08/29 09:34:40;;;;;;;15.90;3.40;;;;;;;21.02;46.30;101767.00;5065784;28;20044;-58
2022/08/29 09:37:32;;;;;;;22.33;4.22;;;;;;;21.94;45.69;101765.75;5052919;28;20040;-58
2022/08/29 09:40:06;;;;;;;16.95;4.10;;;;;;;23.28;41.54;101765.69;5040432;28;20060;-59
2022/08/29 09:42:38;;;;;;;15.35;4.05;;;;;;;24.16;40.01;101773.16;5044441;28;20056;-60
2022/08/29 09:45:16;;;;;;;13.68;4.18;;;;;;;25.20;37.33;101767.19;5060803;28;20433;-58
2022/08/29 09:47:44;;;;;;;16.70;4.13;;;;;;;25.29;36.99;101768.59;5046172;28;20073;-58
2022/08/29 09:52:59;;;;;;;20.38;4.38;;;;;;;25.51;36.72;101768.94;5122305;27;21061;-57
2022/08/29 09:58:26;;;;;;;15.00;3.78;;;;;;;24.47;38.84;101757.91;5113669;27;20727;-57
2022/08/29 10:03:40;;;;;;;13.95;3.90;;;;;;;23.76;39.97;101760.66;5109215;27;20354;-57
2022/08/29 10:06:13;;;;;;;17.65;3.92;;;;;;;23.65;40.64;101760.50;5105176;28;20054;-58
2022/08/29 10:08:41;;;;;;;13.57;3.45;;;;;;;23.38;40.64;101760.66;5111654;28;20109;-57
2022/08/29 10:13:55;;;;;;;15.23;3.80;;;;;;;23.52;40.37;101756.84;5066007;28;20381;-57
2022/08/29 10:16:47;;;;;;;13.63;3.85;;;;;;;23.86;39.88;101756.69;5063237;28;20041;-57
2022/08/29 10:19:21;;;;;;;21.08;4.53;;;;;;;23.63;40.20;101751.78;5047049;28;20059;-57
2022/08/29 10:22:04;;;;;;;16.10;4.47;;;;;;;23.94;39.51;101753.72;5045805;28;20045;-57
2022/08/29 10:27:45;;;;;;;23.30;4.03;;;;;;;23.91;41.33;101754.16;5042091;28;20413;-57
2022/08/29 10:30:17;;;;;;;20.10;3.70;;;;;;;23.70;41.88;101752.56;5039778;28;20390;-58
2022/08/29 10:33:24;;;;;;;16.83;3.85;;;;;;;23.77;40.06;101747.94;5044628;28;20061;-57
2022/08/29 10:36:05;;;;;;;16.40;4.30;;;;;;;23.66;40.45;101741.34;5041806;28;20041;-57
2022/08/29 10:41:39;;;;;;;16.00;3.40;;;;;;;23.70;40.09;101739.88;5114415;27;20440;-57
2022/08/29 10:47:32;;;;;;;14.20;3.70;;;;;;;23.93;38.39;101739.31;5108823;27;20732;-56
2022/08/29 10:50:39;;;;;;;15.85;3.85;;;;;;;24.06;38.83;101732.16;5096641;27;21602;-56
2022/08/29 10:53:16;;;;;;;12.88;3.75;;;;;;;23.95;38.35;101728.28;5115459;28;20050;-56
2022/08/29 10:56:09;;;;;;;14.15;3.92;;;;;;;23.75;38.49;101723.78;5105346;28;20076;-57
2022/08/29 10:59:05;;;;;;;14.57;3.38;;;;;;;23.32;38.48;101734.44;5094511;28;20043;-57
2022/08/29 11:01:40;;;;;;;18.52;3.88;;;;;;;22.97;41.02;101718.50;5101222;28;20105;-57
2022/08/29 11:04:17;;;;;;;14.35;3.60;;;;;;;23.08;39.81;101712.44;5104539;28;20051;-57
2022/08/29 11:07:08;;;;;;;16.50;3.58;;;;;;;22.93;39.15;101714.56;5124765;28;20044;-57
2022/08/29 11:09:42;;;;;;;12.80;3.43;;;;;;;23.08;39.62;101717.88;5109281;28;20052;-57
2022/08/29 11:12:16;;;;;;;14.55;3.80;;;;;;;22.95;39.76;101710.59;5115392;27;20143;-57
2022/08/29 11:14:55;;;;;;;13.18;3.50;;;;;;;23.04;39.97;101711.22;5112688;28;20044;-57
2022/08/29 11:17:27;;;;;;;13.00;3.42;;;;;;;22.88;39.07;101700.84;5105248;28;20054;-58
2022/08/29 11:20:10;;;;;;;18.30;3.80;;;;;;;23.06;39.27;101689.38;5095622;28;20047;-58
2022/08/29 11:22:45;;;;;;;14.38;3.75;;;;;;;23.46;38.10;101690.00;5089747;28;20729;-58
2022/08/29 11:25:15;;;;;;;12.80;3.78;;;;;;;23.19;38.01;101694.72;5103905;28;20056;-58
2022/08/29 11:30:36;;;;;;;15.32;4.63;;;;;;;23.50;37.08;101698.53;5096511;27;20405;-57
2022/08/29 11:33:38;;;;;;;14.60;3.60;;;;;;;23.14;38.29;101694.53;5088242;28;20039;-57
2022/08/29 11:36:36;;;;;;;14.40;3.55;;;;;;;22.42;38.47;101687.22;5079963;28;20044;-57
2022/08/29 11:39:40;;;;;;;12.18;3.65;;;;;;;22.50;38.05;101691.56;5105128;28;20555;-57
2022/08/29 11:42:10;;;;;;;11.48;3.53;;;;;;;22.38;38.72;101685.16;5092101;28;20056;-57
2022/08/29 11:44:43;;;;;;;13.97;3.77;;;;;;;22.42;37.71;101681.81;5096747;28;20049;-57
2022/08/29 11:47:39;;;;;;;10.20;3.60;;;;;;;22.53;38.32;101682.22;5083955;28;20554;-57
2022/08/29 11:50:35;;;;;;;12.80;3.83;;;;;;;22.90;37.98;101682.53;5105679;28;20417;-57
2022/08/29 11:53:36;;;;;;;15.60;3.95;;;;;;;22.82;37.13;101675.47;5092322;28;20044;-57
2022/08/29 11:56:25;;;;;;;12.93;3.73;;;;;;;23.08;37.39;101679.16;5067827;28;20056;-57
2022/08/29 11:58:56;;;;;;;16.33;3.80;;;;;;;23.27;36.93;101689.06;5088972;28;20038;-57